Montrose, CO

12:39 AM MDT on June 24, 2017 (GMT -0600)
Montrose Regional | | Change Station

Elev 5758 ft 38.51 °N, 107.89 °W | Updated 46 minutes ago

Clear
Clear
67 °F
Feels Like 67 °F
N
13
Wind Variable Wind from SE

Today
High -- | Low -- °F
--% Chance of Precip.
Yesterday
High -- | Low -- °F
Precip. -- in
Pressure 29.91 in
Visibility 10.0 miles
Clouds Clear
Dew Point 26 °F
Humidity 21%
Rainfall 0.00 in
Snow Depth Not available.
5:48 AM 8:39 PM
New Moon, 0% visible
METAR KMTJ 240553Z AUTO 14011KT 10SM CLR 19/M03 A3016 RMK AO2 SLP126 T01941033 10311 20183 50012
Pressure 29.91 in
Visibility 10.0 miles
Clouds Clear
Dew Point 26 °F
Humidity 21%
Rainfall 0.00 in
Snow Depth Not available.
5:48 AM 8:39 PM
New Moon, 0% visible
METAR KMTJ 240553Z AUTO 14011KT 10SM CLR 19/M03 A3016 RMK AO2 SLP126 T01941033 10311 20183 50012

Get Severe Weather Alerts

Thanks for signing up!

Be on the lookout for a verification email in your inbox.

You'll start receiving the daily forecast at 6 AM.

×

10-Day Weather Forecast

Almanac

Astronomy

Jun. 24, 2017 Rise Set
Actual Time
Civil Twilight
Nautical Twilight
Astronomical Twilight
Moon
Length of Visible Light
Length of Day
Tomorrow will be .
, % of the Moon is Illuminated

Today's Extremes

State Highs State Lows

Community

WunderPhotos

Category 6

Welcome to Category 6. This is the collective home for Weather Underground's featured writeups by Dr. Jeff Masters (right), Bob Henson (left), Chris Burt, and other regular contributors.

Nearby

Air Quality

  Air Quality AQ Index Pollutant
Not available.

Snow Depth

Station Depth Elevation

Earthquake Activity

City Distance Mag. Time & Date
Minimum magnitude displayed is 2.5.

Coastal Water Temperatures

Place Temperature

Stations

Nearby Weather Stations

Station Location Temp. Windchill Dew Point Humidity Wind Precip. Elev Updated Type
                   

Watches & Warnings

There are currently no watches in effect.